createdAt,value
2018-01-26T00:01:35.850Z,16.20
2018-01-26T00:04:03.732Z,15.00
2018-01-26T00:06:31.975Z,16.55
2018-01-26T00:09:01.075Z,17.37
2018-01-26T00:11:28.971Z,17.10
2018-01-26T00:13:57.219Z,16.75
2018-01-26T00:16:25.095Z,16.50
2018-01-26T00:18:52.570Z,14.63
2018-01-26T00:21:20.056Z,17.20
2018-01-26T00:23:48.303Z,16.52
2018-01-26T00:26:16.578Z,17.87
2018-01-26T00:28:44.848Z,17.33
2018-01-26T00:31:12.717Z,16.90
2018-01-26T00:33:41.403Z,17.70
2018-01-26T00:36:08.867Z,17.87
2018-01-26T00:38:36.748Z,15.32
2018-01-26T00:41:05.254Z,17.62
2018-01-26T00:43:33.604Z,16.87
2018-01-26T00:46:01.091Z,17.20
2018-01-26T00:48:28.906Z,18.90
2018-01-26T00:50:56.380Z,17.67
2018-01-26T00:53:23.878Z,18.98
2018-01-26T00:55:52.093Z,17.42
2018-01-26T00:58:19.679Z,18.87
2018-01-26T01:00:47.146Z,18.75
2018-01-26T01:03:14.742Z,17.90
2018-01-26T01:05:43.005Z,19.05
2018-01-26T01:08:10.550Z,18.15
2018-01-26T01:10:38.023Z,17.60
2018-01-26T01:13:05.517Z,17.83
2018-01-26T01:15:33.842Z,18.98
2018-01-26T01:18:02.037Z,18.62
2018-01-26T01:20:29.506Z,18.65
2018-01-26T01:22:57.778Z,19.00
2018-01-26T01:25:26.314Z,18.92
2018-01-26T01:27:53.785Z,18.65
2018-01-26T01:30:21.251Z,19.33
2018-01-26T01:32:49.471Z,19.50
2018-01-26T01:35:16.949Z,19.10
2018-01-26T01:37:45.180Z,19.08
2018-01-26T01:40:13.807Z,17.02
2018-01-26T01:42:42.532Z,19.45
2018-01-26T01:45:10.409Z,19.02
2018-01-26T01:47:37.927Z,19.05
2018-01-26T01:50:06.179Z,18.52
2018-01-26T01:52:34.463Z,19.98
2018-01-26T01:55:02.841Z,18.80
2018-01-26T01:57:31.770Z,18.80
2018-01-26T01:59:59.649Z,19.10
2018-01-26T02:02:27.378Z,20.00
2018-01-26T02:04:55.631Z,19.48
2018-01-26T02:07:23.922Z,20.23
2018-01-26T02:09:52.595Z,20.42
2018-01-26T02:12:20.879Z,20.62
2018-01-26T02:14:48.760Z,20.25
2018-01-26T02:17:16.631Z,20.08
2018-01-26T02:19:44.103Z,21.05
2018-01-26T02:22:11.591Z,19.85
2018-01-26T02:24:39.507Z,20.65
2018-01-26T02:27:07.001Z,19.75
2018-01-26T02:29:34.487Z,21.30
2018-01-26T02:32:02.726Z,20.90
2018-01-26T02:34:31.402Z,20.15
2018-01-26T02:36:58.888Z,21.08
2018-01-26T02:39:27.546Z,22.10
2018-01-26T02:41:55.415Z,21.45
2018-01-26T02:44:23.065Z,21.52
2018-01-26T02:46:50.853Z,23.23
2018-01-26T02:49:18.352Z,21.87
2018-01-26T02:51:46.576Z,21.73
2018-01-26T02:54:14.060Z,20.45
2018-01-26T02:56:42.305Z,21.35
2018-01-26T02:59:10.921Z,21.10
2018-01-26T03:01:39.518Z,19.98
2018-01-26T03:04:07.590Z,20.17
2018-01-26T03:06:35.833Z,19.40
2018-01-26T03:09:04.325Z,21.65
2018-01-26T03:11:32.573Z,19.73
2018-01-26T03:14:00.819Z,20.08
2018-01-26T03:16:29.428Z,18.80
2018-01-26T03:18:56.888Z,19.80
2018-01-26T03:21:24.406Z,21.90
2018-01-26T03:23:52.981Z,18.98
2018-01-26T03:26:20.878Z,20.62
2018-01-26T03:28:48.348Z,21.65
2018-01-26T03:31:15.829Z,21.30
2018-01-26T03:33:43.314Z,21.83
2018-01-26T03:36:11.560Z,21.27
2018-01-26T03:38:39.814Z,20.42
2018-01-26T03:41:07.291Z,21.83
2018-01-26T03:43:34.809Z,21.37
2018-01-26T03:46:02.703Z,23.00
2018-01-26T03:48:30.182Z,21.42
2018-01-26T03:50:58.051Z,21.37
2018-01-26T03:53:25.833Z,21.90
2018-01-26T03:55:53.734Z,21.62
2018-01-26T03:58:21.595Z,23.35
2018-01-26T04:00:50.171Z,22.62
2018-01-26T04:03:18.407Z,25.37
2018-01-26T04:05:45.900Z,23.40
2018-01-26T04:08:13.774Z,21.95
2018-01-26T04:10:41.642Z,22.25
2018-01-26T04:13:09.180Z,23.98
2018-01-26T04:15:37.043Z,24.20
2018-01-26T04:18:04.522Z,25.40
2018-01-26T04:20:32.777Z,23.75
2018-01-26T04:23:01.031Z,25.40
2018-01-26T04:25:29.269Z,25.23
2018-01-26T04:27:56.752Z,26.23
2018-01-26T04:30:24.967Z,25.02
2018-01-26T04:32:53.209Z,26.10
2018-01-26T04:35:20.676Z,29.20
2018-01-26T04:37:49.322Z,27.90
2018-01-26T04:40:16.791Z,28.02
2018-01-26T04:42:45.039Z,30.23
2018-01-26T04:45:12.869Z,27.30
2018-01-26T04:47:40.479Z,28.60
2018-01-26T04:50:07.967Z,27.37
2018-01-26T04:52:35.909Z,28.12
2018-01-26T04:55:04.155Z,28.35
2018-01-26T04:57:32.064Z,29.10
2018-01-26T04:59:59.871Z,26.15
2018-01-26T05:02:28.114Z,26.87
2018-01-26T05:04:56.354Z,27.17
2018-01-26T05:07:24.259Z,28.20
2018-01-26T05:09:51.799Z,25.58
2018-01-26T05:12:19.662Z,25.27
2018-01-26T05:14:47.471Z,25.65
2018-01-26T05:17:14.936Z,26.52
2018-01-26T05:19:43.185Z,27.25
2018-01-26T05:22:11.071Z,30.17
2018-01-26T05:24:38.534Z,28.33
2018-01-26T05:27:06.415Z,27.17
2018-01-26T05:29:35.101Z,31.40
2018-01-26T05:32:03.343Z,30.20
2018-01-26T05:34:31.203Z,29.42
2018-01-26T05:36:59.402Z,31.25
2018-01-26T05:39:26.884Z,27.73
2018-01-26T05:41:54.352Z,29.60
2018-01-26T05:44:22.539Z,29.80
2018-01-26T05:46:50.043Z,31.17
2018-01-26T05:49:18.281Z,26.50
2018-01-26T05:51:46.131Z,29.98
2018-01-26T05:54:13.611Z,32.65
2018-01-26T05:56:41.089Z,34.17
2018-01-26T05:59:08.960Z,31.65
2018-01-26T06:01:36.830Z,32.80
2018-01-26T06:04:05.076Z,33.25
2018-01-26T06:06:33.791Z,33.45
2018-01-26T06:09:02.087Z,35.85
2018-01-26T06:11:30.332Z,32.63
2018-01-26T06:13:58.931Z,32.08
2018-01-26T06:16:27.203Z,33.83
2018-01-26T06:18:55.146Z,35.10
2018-01-26T06:21:23.400Z,30.12
2018-01-26T06:23:51.638Z,29.33
2018-01-26T06:26:19.138Z,28.27
2018-01-26T06:28:46.978Z,32.70
2018-01-26T06:31:15.230Z,32.08
2018-01-26T06:33:43.479Z,33.38
2018-01-26T06:36:11.017Z,30.83
2018-01-26T06:38:38.488Z,30.37
2018-01-26T06:41:06.351Z,30.83
2018-01-26T06:43:34.604Z,33.42
2018-01-26T06:46:02.493Z,31.15
2018-01-26T06:48:29.985Z,32.28
2018-01-26T06:50:58.597Z,31.92
2018-01-26T06:53:26.069Z,32.85
2018-01-26T06:55:53.550Z,36.97
2018-01-26T06:58:21.347Z,34.95
2018-01-26T07:00:49.215Z,35.13
2018-01-26T07:03:17.535Z,35.17
2018-01-26T07:05:45.340Z,33.55
2018-01-26T07:08:12.856Z,33.45
2018-01-26T07:10:40.737Z,30.90
2018-01-26T07:13:08.279Z,34.40
2018-01-26T07:15:35.770Z,33.55
2018-01-26T07:18:03.295Z,35.38
2018-01-26T07:20:31.571Z,36.50
2018-01-26T07:22:59.456Z,34.42
2018-01-26T07:25:27.021Z,35.67
2018-01-26T07:27:54.532Z,30.90
2018-01-26T07:30:22.016Z,35.80
2018-01-26T07:32:50.286Z,36.20
2018-01-26T07:35:18.159Z,34.10
2018-01-26T07:37:46.398Z,33.13
2018-01-26T07:40:14.643Z,33.05
2018-01-26T07:42:42.123Z,35.72
2018-01-26T07:45:10.361Z,35.17
2018-01-26T07:47:38.231Z,34.28
2018-01-26T07:50:06.435Z,32.22
2018-01-26T07:52:34.304Z,35.00
2018-01-26T07:55:02.563Z,34.90
2018-01-26T07:57:30.860Z,35.40
2018-01-26T07:59:59.105Z,35.30
2018-01-26T08:02:28.080Z,34.55
2018-01-26T08:04:55.996Z,33.20
2018-01-26T08:07:24.223Z,33.28
2018-01-26T08:09:51.727Z,33.60
2018-01-26T08:12:19.986Z,34.85
2018-01-26T08:14:47.439Z,35.90
2018-01-26T08:17:15.318Z,35.55
2018-01-26T08:19:43.195Z,32.75
2018-01-26T08:22:11.470Z,32.88
2018-01-26T08:24:39.336Z,34.10
2018-01-26T08:27:07.606Z,32.53
2018-01-26T08:29:35.479Z,33.33
2018-01-26T08:32:03.704Z,35.28
2018-01-26T08:34:31.953Z,32.80
2018-01-26T08:37:00.193Z,33.65
2018-01-26T08:39:28.081Z,34.38
2018-01-26T08:41:56.347Z,33.55
2018-01-26T08:44:24.214Z,31.85
2018-01-26T08:46:52.453Z,35.35
2018-01-26T08:49:20.003Z,31.80
2018-01-26T08:51:47.473Z,30.52
2018-01-26T08:54:14.954Z,32.30
2018-01-26T08:56:42.878Z,28.83
2018-01-26T08:59:11.486Z,30.05
2018-01-26T09:01:39.402Z,30.10
2018-01-26T09:04:07.643Z,27.45
2018-01-26T09:06:35.887Z,28.90
2018-01-26T09:09:04.144Z,30.73
2018-01-26T09:11:32.022Z,30.62
2018-01-26T09:14:00.256Z,30.75
2018-01-26T09:16:28.145Z,31.33
2018-01-26T09:18:55.608Z,28.75
2018-01-26T09:21:23.094Z,30.58
2018-01-26T09:23:51.028Z,28.17
2018-01-26T09:26:19.375Z,28.05
2018-01-26T09:28:47.647Z,27.73
2018-01-26T09:31:15.519Z,28.67
2018-01-26T09:33:43.392Z,28.00
2018-01-26T09:36:10.939Z,30.73
2018-01-26T09:38:38.829Z,27.80
2018-01-26T09:41:06.983Z,26.83
2018-01-26T09:46:09.588Z,30.12
2018-01-26T09:48:37.062Z,32.42
2018-01-26T09:51:04.627Z,30.95
2018-01-26T09:53:32.863Z,30.90
2018-01-26T09:56:01.136Z,30.92
2018-01-26T09:58:29.515Z,31.58
2018-01-26T10:00:57.935Z,30.85
2018-01-26T10:03:25.427Z,30.62
2018-01-26T10:05:53.703Z,32.28
2018-01-26T10:08:21.587Z,28.80
2018-01-26T10:10:49.093Z,26.65
2018-01-26T10:13:16.611Z,27.40
2018-01-26T10:15:44.506Z,26.98
2018-01-26T10:18:12.385Z,24.80
2018-01-26T10:20:41.027Z,24.50
2018-01-26T10:23:08.935Z,23.60
2018-01-26T10:25:37.622Z,23.58
2018-01-26T10:28:05.124Z,21.80
2018-01-26T10:30:33.026Z,21.90
2018-01-26T10:33:00.540Z,21.62
2018-01-26T10:35:28.421Z,22.23
2018-01-26T10:37:56.327Z,22.55
2018-01-26T10:40:23.845Z,21.33
2018-01-26T10:42:51.795Z,21.42
2018-01-26T10:45:20.133Z,20.10
2018-01-26T10:47:47.633Z,19.17
2018-01-26T10:50:15.974Z,18.92
2018-01-26T10:52:44.427Z,20.10
2018-01-26T10:55:12.292Z,21.52
2018-01-26T10:57:40.168Z,20.27
2018-01-26T11:00:08.735Z,25.70
2018-01-26T11:02:36.679Z,20.10
2018-01-26T11:05:04.563Z,20.35
2018-01-26T11:07:32.891Z,20.95
2018-01-26T11:10:00.848Z,20.80
2018-01-26T11:12:29.115Z,20.20
2018-01-26T11:14:56.997Z,20.37
2018-01-26T11:17:25.228Z,20.08
2018-01-26T11:19:52.717Z,20.25
2018-01-26T11:22:20.760Z,18.35
2018-01-26T11:24:49.019Z,18.75
2018-01-26T11:27:16.969Z,17.77
2018-01-26T11:29:44.920Z,17.75
2018-01-26T11:32:12.821Z,18.65
2018-01-26T11:34:40.316Z,18.48
2018-01-26T11:37:08.215Z,15.65
2018-01-26T11:39:36.083Z,17.20
2018-01-26T11:42:04.363Z,15.73
2018-01-26T11:44:32.683Z,16.15
2018-01-26T11:47:00.560Z,15.82
2018-01-26T11:49:28.435Z,16.10
2018-01-26T11:51:56.019Z,14.43
2018-01-26T11:54:23.507Z,15.75
2018-01-26T11:56:51.783Z,16.80
2018-01-26T11:59:19.336Z,15.48
2018-01-26T12:01:47.240Z,16.58
2018-01-26T12:04:15.143Z,16.83
2018-01-26T12:06:43.497Z,15.55
2018-01-26T12:09:11.430Z,18.60
2018-01-26T12:11:39.767Z,18.25
2018-01-26T12:14:07.281Z,18.12
2018-01-26T12:16:35.531Z,16.45
2018-01-26T12:19:03.419Z,17.12
2018-01-26T12:21:31.734Z,17.52
2018-01-26T12:23:59.596Z,16.05
2018-01-26T12:26:27.179Z,18.62
2018-01-26T12:28:54.656Z,19.77
2018-01-26T12:31:22.554Z,19.02
2018-01-26T12:33:50.871Z,20.25
2018-01-26T12:36:18.765Z,19.62
2018-01-26T12:38:47.118Z,19.80
2018-01-26T12:41:15.094Z,19.33
2018-01-26T12:43:43.190Z,21.35
2018-01-26T12:46:11.190Z,22.20
2018-01-26T12:48:39.443Z,20.83
2018-01-26T12:51:07.479Z,21.50
2018-01-26T12:53:35.049Z,21.25
2018-01-26T12:56:02.919Z,22.62
2018-01-26T12:58:30.402Z,21.33
2018-01-26T13:00:58.271Z,21.15
2018-01-26T13:03:25.735Z,20.83
2018-01-26T13:05:54.070Z,27.85
2018-01-26T13:08:22.323Z,23.30
2018-01-26T13:10:49.815Z,24.65
2018-01-26T13:13:18.350Z,26.62
2018-01-26T13:15:45.826Z,23.77
2018-01-26T13:18:13.600Z,26.60
2018-01-26T13:20:42.278Z,24.90
2018-01-26T13:23:09.833Z,27.75
2018-01-26T13:25:37.306Z,28.58
2018-01-26T13:28:05.531Z,32.58
2018-01-26T13:30:33.487Z,31.12
2018-01-26T13:33:01.403Z,29.65
2018-01-26T13:35:29.678Z,32.53
2018-01-26T13:37:57.911Z,34.35
2018-01-26T13:40:26.207Z,34.92
2018-01-26T13:42:54.107Z,31.25
2018-01-26T13:45:22.375Z,32.33
2018-01-26T13:47:49.863Z,32.25
2018-01-26T13:50:18.220Z,32.03
2018-01-26T13:52:46.079Z,31.98
2018-01-26T13:55:14.331Z,32.45
2018-01-26T13:57:42.731Z,31.58
2018-01-26T14:00:10.796Z,33.47
2018-01-26T14:02:39.039Z,32.40
2018-01-26T14:05:06.535Z,30.08
2018-01-26T14:07:34.415Z,31.90
2018-01-26T14:10:02.328Z,28.35
2018-01-26T14:12:30.899Z,27.62
2018-01-26T14:14:58.506Z,27.67
2018-01-26T14:17:27.123Z,29.75
2018-01-26T14:19:55.397Z,28.60
2018-01-26T14:22:23.657Z,27.42
2018-01-26T14:24:51.536Z,30.02
2018-01-26T14:27:19.795Z,32.60
2018-01-26T14:29:47.662Z,35.20
2018-01-26T14:32:15.531Z,29.17
2018-01-26T14:34:43.102Z,34.40
2018-01-26T14:37:10.596Z,33.33
2018-01-26T14:39:38.522Z,31.30
2018-01-26T14:42:06.740Z,33.72
2018-01-26T14:44:35.020Z,33.70
2018-01-26T14:47:02.954Z,33.15
2018-01-26T14:49:31.981Z,30.90
2018-01-26T14:52:00.238Z,37.40
2018-01-26T14:54:28.163Z,36.05
2018-01-26T14:56:56.451Z,35.95
2018-01-26T14:59:23.957Z,35.53
2018-01-26T15:01:52.269Z,34.42
2018-01-26T15:04:20.897Z,36.50
2018-01-26T15:06:48.363Z,36.42
2018-01-26T15:09:16.634Z,36.63
2018-01-26T15:11:45.463Z,33.42
2018-01-26T15:14:13.439Z,34.95
2018-01-26T15:16:42.055Z,31.70
2018-01-26T15:19:09.584Z,33.33
2018-01-26T15:21:37.099Z,31.95
2018-01-26T15:24:06.152Z,35.78
2018-01-26T15:26:34.031Z,30.65
2018-01-26T15:29:02.271Z,33.78
2018-01-26T15:31:30.203Z,32.65
2018-01-26T15:33:58.608Z,34.58
2018-01-26T15:36:26.875Z,33.70
2018-01-26T15:38:54.765Z,30.58
2018-01-26T15:41:22.276Z,33.55
2018-01-26T15:43:50.609Z,35.03
2018-01-26T15:46:19.220Z,31.70
2018-01-26T15:48:48.287Z,32.40
2018-01-26T15:51:15.775Z,33.55
2018-01-26T15:53:44.024Z,32.40
2018-01-26T15:56:11.923Z,29.48
2018-01-26T15:58:39.793Z,31.02
2018-01-26T16:01:07.702Z,32.92
2018-01-26T16:03:35.607Z,29.37
2018-01-26T16:06:03.160Z,33.35
2018-01-26T16:08:31.034Z,33.45
2018-01-26T16:10:58.927Z,36.55
2018-01-26T16:13:26.844Z,32.85
2018-01-26T16:16:04.034Z,36.13
2018-01-26T16:18:32.683Z,37.38
2018-01-26T16:21:02.932Z,31.50
2018-01-26T16:23:31.299Z,36.97
2018-01-26T16:25:59.269Z,32.58
2018-01-26T16:28:27.158Z,34.38
2018-01-26T16:30:54.661Z,34.17
2018-01-26T16:33:22.149Z,31.83
2018-01-26T16:35:50.014Z,34.92
2018-01-26T16:38:17.905Z,34.72
2018-01-26T16:40:45.778Z,48.40
2018-01-26T16:43:14.016Z,44.72
2018-01-26T16:45:42.309Z,35.30
2018-01-26T16:48:10.231Z,37.35
2018-01-26T16:50:37.709Z,35.53
2018-01-26T16:53:05.639Z,31.55
2018-01-26T16:55:33.550Z,33.88
2018-01-26T16:58:01.435Z,39.78
2018-01-26T17:00:30.018Z,39.92
2018-01-26T17:02:57.503Z,37.80
2018-01-26T17:05:25.079Z,35.17
2018-01-26T17:07:52.570Z,35.17
2018-01-26T17:10:20.449Z,31.83
2018-01-26T17:12:48.372Z,32.33
2018-01-26T17:15:16.652Z,35.67
2018-01-26T17:17:44.528Z,34.72
2018-01-26T17:20:12.400Z,34.10
2018-01-26T17:22:40.685Z,36.08
2018-01-26T17:25:10.587Z,37.92
2018-01-26T17:27:39.091Z,33.78
2018-01-26T17:30:07.088Z,36.35
2018-01-26T17:32:35.068Z,32.78
2018-01-26T17:35:03.108Z,34.95
2018-01-26T17:37:30.779Z,35.35
2018-01-26T17:39:58.342Z,35.25
2018-01-26T17:42:26.608Z,33.85
2018-01-26T17:44:54.864Z,33.90
2018-01-26T17:47:22.755Z,34.28
2018-01-26T17:49:50.618Z,34.17
2018-01-26T17:52:19.280Z,34.75
2018-01-26T17:54:47.154Z,36.40
2018-01-26T17:57:15.477Z,36.03
2018-01-26T17:59:44.241Z,36.05
2018-01-26T18:02:11.752Z,36.75
2018-01-26T18:04:39.987Z,33.17
2018-01-26T18:07:08.056Z,35.17
2018-01-26T18:09:36.253Z,33.55
2018-01-26T18:12:04.503Z,33.70
2018-01-26T18:14:32.680Z,34.53
2018-01-26T18:17:00.295Z,38.20
2018-01-26T18:19:28.614Z,38.90
2018-01-26T18:21:57.360Z,36.15
2018-01-26T18:24:25.615Z,37.00
2018-01-26T18:26:53.851Z,37.20
2018-01-26T18:29:22.016Z,36.15
2018-01-26T18:31:49.525Z,34.80
2018-01-26T18:34:17.428Z,32.88
2018-01-26T18:36:44.915Z,34.13
2018-01-26T18:39:12.798Z,34.60
2018-01-26T18:41:42.162Z,36.20
2018-01-26T18:44:09.671Z,32.42
2018-01-26T18:46:37.159Z,32.42
2018-01-26T18:49:04.639Z,32.80
2018-01-26T18:51:32.541Z,33.90
2018-01-26T18:54:00.779Z,32.55
2018-01-26T18:56:29.055Z,31.75
2018-01-26T18:58:56.579Z,34.85
2018-01-26T19:01:24.611Z,34.05
2018-01-26T19:03:52.109Z,36.83
2018-01-26T19:06:20.415Z,34.25
2018-01-26T19:08:48.661Z,34.83
2018-01-26T19:11:16.899Z,34.13
2018-01-26T19:13:44.690Z,36.47
2018-01-26T19:16:12.582Z,36.55
2018-01-26T19:18:40.835Z,36.85
2018-01-26T19:21:09.151Z,35.90
2018-01-26T19:23:37.785Z,33.10
2018-01-26T19:26:06.034Z,35.88
2018-01-26T19:28:34.000Z,34.30
2018-01-26T19:31:02.321Z,33.78
2018-01-26T19:33:30.560Z,33.15
2018-01-26T19:35:58.053Z,33.25
2018-01-26T19:38:26.329Z,33.33
2018-01-26T19:40:54.203Z,31.75
2018-01-26T19:43:22.508Z,34.30
2018-01-26T19:45:49.972Z,36.50
2018-01-26T19:48:18.212Z,35.60
2018-01-26T19:50:47.619Z,35.00
2018-01-26T19:53:15.091Z,35.08
2018-01-26T19:55:43.943Z,33.50
2018-01-26T19:58:13.444Z,35.78
2018-01-26T20:00:40.920Z,35.28
2018-01-26T20:03:21.140Z,33.38
2018-01-26T20:05:54.272Z,34.33
2018-01-26T20:08:31.084Z,33.38
2018-01-26T20:10:59.760Z,34.78
2018-01-26T20:13:28.549Z,34.58
2018-01-26T20:15:57.233Z,33.60
2018-01-26T20:18:24.750Z,34.97
2018-01-26T20:20:52.659Z,35.33
2018-01-26T20:23:22.215Z,37.05
2018-01-26T20:25:49.679Z,35.90
2018-01-26T20:28:18.648Z,34.40
2018-01-26T20:30:46.543Z,34.38
2018-01-26T20:33:14.840Z,37.38
2018-01-26T20:35:42.349Z,39.60
2018-01-26T20:38:10.237Z,40.65
2018-01-26T20:40:38.477Z,39.22
2018-01-26T20:43:06.733Z,37.65
2018-01-26T20:45:34.724Z,41.47
2018-01-26T20:48:02.998Z,39.80
2018-01-26T20:50:31.570Z,38.08
2018-01-26T20:53:00.667Z,37.55
2018-01-26T20:55:28.139Z,36.97
2018-01-26T20:57:56.019Z,34.08
2018-01-26T21:00:24.559Z,34.67
2018-01-26T21:02:52.936Z,36.55
2018-01-26T21:05:20.405Z,35.53
2018-01-26T21:07:48.874Z,35.30
2018-01-26T21:10:17.147Z,36.50
2018-01-26T21:12:45.076Z,33.53
2018-01-26T21:15:13.516Z,33.80
2018-01-26T21:17:41.408Z,33.25
2018-01-26T21:20:10.455Z,30.73
2018-01-26T21:22:37.944Z,27.98
2018-01-26T21:25:05.718Z,28.60
2018-01-26T21:27:33.430Z,27.80
2018-01-26T21:30:01.218Z,30.75
2018-01-26T21:32:29.480Z,30.37
2018-01-26T21:34:56.966Z,28.50
2018-01-26T21:37:24.843Z,27.17
2018-01-26T21:39:52.323Z,27.83
2018-01-26T21:42:20.565Z,29.50
2018-01-26T21:44:50.450Z,28.75
2018-01-26T21:47:18.687Z,27.23
2018-01-26T21:49:46.635Z,27.48
2018-01-26T21:52:14.597Z,25.48
2018-01-26T21:54:42.885Z,26.90
2018-01-26T21:57:10.370Z,27.65
2018-01-26T21:59:38.963Z,31.35
2018-01-26T22:02:07.198Z,29.27
2018-01-26T22:04:40.257Z,26.12
2018-01-26T22:07:13.775Z,25.08
2018-01-26T22:09:42.817Z,27.27
2018-01-26T22:12:11.406Z,27.98
2018-01-26T22:14:38.873Z,26.05
2018-01-26T22:17:06.752Z,30.65
2018-01-26T22:19:34.228Z,27.05
2018-01-26T22:22:02.554Z,27.05
2018-01-26T22:24:30.060Z,27.25
2018-01-26T22:26:58.171Z,29.50
2018-01-26T22:29:26.695Z,29.75
2018-01-26T22:31:54.261Z,26.62
2018-01-26T22:34:21.738Z,22.98
2018-01-26T22:36:49.638Z,24.37
2018-01-26T22:39:18.592Z,25.83
2018-01-26T22:41:46.498Z,26.80
2018-01-26T22:44:14.816Z,25.42
2018-01-26T22:46:43.758Z,23.48
2018-01-26T22:49:11.633Z,22.33
2018-01-26T22:51:39.557Z,23.35
2018-01-26T22:54:07.405Z,24.15
2018-01-26T22:56:35.651Z,20.48
2018-01-26T22:59:03.198Z,19.98
2018-01-26T23:01:31.105Z,22.48
2018-01-26T23:03:59.068Z,20.37
2018-01-26T23:06:27.675Z,20.37
2018-01-26T23:08:55.534Z,17.42
2018-01-26T23:11:23.086Z,18.05
2018-01-26T23:13:51.456Z,16.85
2018-01-26T23:16:19.330Z,17.05
2018-01-26T23:18:47.246Z,19.33
2018-01-26T23:21:15.127Z,18.40
2018-01-26T23:23:43.327Z,19.12
2018-01-26T23:26:11.605Z,18.20
2018-01-26T23:28:39.080Z,20.33
2018-01-26T23:31:06.732Z,19.27
2018-01-26T23:33:34.323Z,16.85
2018-01-26T23:36:02.203Z,15.93
2018-01-26T23:38:31.033Z,18.60
2018-01-26T23:40:59.328Z,18.12
2018-01-26T23:43:27.199Z,17.33
2018-01-26T23:45:54.697Z,17.73
2018-01-26T23:48:22.941Z,15.52
2018-01-26T23:50:50.420Z,18.27
2018-01-26T23:53:18.260Z,15.52
2018-01-26T23:55:46.527Z,18.15
2018-01-26T23:58:14.404Z,16.62
